createdAt,value
2022-11-15T00:02:08.796Z,10.21
2022-11-15T00:04:29.276Z,10.16
2022-11-15T00:06:50.079Z,10.18
2022-11-15T00:09:10.881Z,10.19
2022-11-15T00:11:32.036Z,10.09
2022-11-15T00:13:55.891Z,10.09
2022-11-15T00:16:16.788Z,10.08
2022-11-15T00:18:38.513Z,10.07
2022-11-15T00:21:06.122Z,9.98
2022-11-15T00:23:26.718Z,9.93
2022-11-15T00:26:00.465Z,9.96
2022-11-15T00:28:21.109Z,9.97
2022-11-15T00:30:44.097Z,9.95
2022-11-15T00:33:06.330Z,10.02
2022-11-15T00:35:28.352Z,9.97
2022-11-15T00:37:49.599Z,9.94
2022-11-15T00:40:11.133Z,9.96
2022-11-15T00:42:31.573Z,9.93
2022-11-15T00:44:52.296Z,9.92
2022-11-15T00:47:12.771Z,9.84
2022-11-15T00:49:34.092Z,9.86
2022-11-15T00:51:54.747Z,9.90
2022-11-15T00:54:15.506Z,9.93
2022-11-15T00:56:35.873Z,9.86
2022-11-15T00:58:56.119Z,9.90
2022-11-15T01:01:16.596Z,9.87
2022-11-15T01:03:39.007Z,9.85
2022-11-15T01:06:01.297Z,9.84
2022-11-15T01:08:21.908Z,9.86
2022-11-15T01:10:43.743Z,9.79
2022-11-15T01:13:04.370Z,9.76
2022-11-15T01:15:24.642Z,9.69
2022-11-15T01:17:45.178Z,9.67
2022-11-15T01:21:09.647Z,9.60
2022-11-15T01:23:30.358Z,9.71
2022-11-15T01:25:51.098Z,9.70
2022-11-15T01:28:12.016Z,9.75
2022-11-15T01:30:33.052Z,9.69
2022-11-15T01:32:53.254Z,9.68
2022-11-15T01:35:14.109Z,9.69
2022-11-15T01:37:34.738Z,9.69
2022-11-15T01:39:55.305Z,9.66
2022-11-15T01:42:16.126Z,9.65
2022-11-15T01:44:44.306Z,9.64
2022-11-15T01:47:10.237Z,9.64
2022-11-15T01:49:34.839Z,9.63
2022-11-15T01:51:56.246Z,9.60
2022-11-15T01:58:11.397Z,9.48
2022-11-15T02:00:33.044Z,9.42
2022-11-15T02:02:54.424Z,9.41
2022-11-15T02:05:15.058Z,9.44
2022-11-15T02:07:37.305Z,9.47
2022-11-15T02:10:03.947Z,9.47
2022-11-15T02:12:24.822Z,9.50
2022-11-15T02:14:49.451Z,9.41
2022-11-15T02:17:26.058Z,9.40
2022-11-15T02:19:52.445Z,9.31
2022-11-15T02:22:21.865Z,9.31
2022-11-15T02:25:02.628Z,9.22
2022-11-15T02:27:53.339Z,9.25
2022-11-15T02:30:27.342Z,9.20
2022-11-15T02:32:54.188Z,9.24
2022-11-15T02:35:53.305Z,9.25
2022-11-15T02:38:31.827Z,9.21
2022-11-15T02:41:03.556Z,9.23
2022-11-15T02:43:51.232Z,9.20
2022-11-15T02:46:59.599Z,9.15
2022-11-15T02:49:20.888Z,9.20
2022-11-15T02:51:42.973Z,9.17
2022-11-15T02:54:03.689Z,9.14
2022-11-15T02:56:26.765Z,9.11
2022-11-15T02:59:13.351Z,9.11
2022-11-15T03:01:57.183Z,8.99
2022-11-15T03:04:24.838Z,9.10
2022-11-15T03:06:55.061Z,9.12
2022-11-15T03:09:44.140Z,9.08
2022-11-15T03:12:12.996Z,9.06
2022-11-15T03:14:38.430Z,9.15
2022-11-15T03:17:04.852Z,9.17
2022-11-15T03:19:35.330Z,9.23
2022-11-15T03:21:59.175Z,9.26
2022-11-15T03:24:46.603Z,9.22
2022-11-15T03:27:11.267Z,9.23
2022-11-15T03:29:39.177Z,9.20
2022-11-15T03:32:06.373Z,9.25
2022-11-15T03:34:39.257Z,9.25
2022-11-15T03:37:00.317Z,9.26
2022-11-15T03:39:22.741Z,9.27
2022-11-15T03:41:52.518Z,9.28
2022-11-15T03:44:24.594Z,9.20
2022-11-15T03:46:55.976Z,9.26
2022-11-15T03:49:23.824Z,9.16
2022-11-15T03:51:45.021Z,9.14
2022-11-15T03:54:09.136Z,9.08
2022-11-15T03:56:29.845Z,9.06
2022-11-15T03:58:50.672Z,9.10
2022-11-15T04:01:10.840Z,9.06
2022-11-15T04:03:31.770Z,9.04
2022-11-15T04:05:52.567Z,9.01
2022-11-15T04:08:13.385Z,9.01
2022-11-15T04:10:33.921Z,8.95
2022-11-15T04:12:54.883Z,8.98
2022-11-15T04:15:18.823Z,8.96
2022-11-15T04:17:44.405Z,8.96
2022-11-15T04:20:25.441Z,9.00
2022-11-15T04:23:04.805Z,9.01
2022-11-15T04:25:31.079Z,9.08
2022-11-15T04:27:52.645Z,9.14
2022-11-15T04:30:13.286Z,9.18
2022-11-15T04:32:33.993Z,9.15
2022-11-15T04:34:54.096Z,9.15
2022-11-15T04:37:16.419Z,9.06
2022-11-15T04:39:37.201Z,9.04
2022-11-15T04:41:57.961Z,9.03
2022-11-15T04:44:18.702Z,9.02
2022-11-15T04:46:39.426Z,8.98
2022-11-15T04:49:00.109Z,8.93
2022-11-15T04:51:20.967Z,8.87
2022-11-15T04:54:07.771Z,8.87
2022-11-15T04:56:32.307Z,8.87
2022-11-15T04:58:54.160Z,8.87
2022-11-15T05:01:16.204Z,8.92
2022-11-15T05:03:55.306Z,8.92
2022-11-15T05:06:16.210Z,8.99
2022-11-15T05:08:39.733Z,9.00
2022-11-15T05:11:00.546Z,8.94
2022-11-15T05:13:21.409Z,8.94
2022-11-15T05:15:42.182Z,8.99
2022-11-15T05:18:04.461Z,8.92
2022-11-15T05:20:25.635Z,8.92
2022-11-15T05:22:46.254Z,8.96
2022-11-15T05:25:07.762Z,8.92
2022-11-15T05:27:28.236Z,8.92
2022-11-15T05:29:49.027Z,8.88
2022-11-15T05:32:11.463Z,8.92
2022-11-15T05:34:32.405Z,8.84
2022-11-15T05:36:53.090Z,8.87
2022-11-15T05:39:21.664Z,8.91
2022-11-15T05:41:56.915Z,8.83
2022-11-15T05:44:21.283Z,8.77
2022-11-15T05:46:43.328Z,8.83
2022-11-15T05:49:07.613Z,8.67
2022-11-15T05:51:30.368Z,8.72
2022-11-15T05:53:53.289Z,8.77
2022-11-15T05:56:14.169Z,8.77
2022-11-15T05:58:38.193Z,8.71
2022-11-15T06:00:59.092Z,8.71
2022-11-15T06:03:26.242Z,8.78
2022-11-15T06:05:46.912Z,8.86
2022-11-15T06:08:07.804Z,8.87
2022-11-15T06:10:28.421Z,8.87
2022-11-15T06:13:04.405Z,8.91
2022-11-15T06:15:24.869Z,9.01
2022-11-15T06:17:45.352Z,8.97
2022-11-15T06:20:06.285Z,8.97
2022-11-15T06:22:26.701Z,9.10
2022-11-15T06:24:47.870Z,9.18
2022-11-15T06:27:08.306Z,9.23
2022-11-15T06:29:29.105Z,9.31
2022-11-15T06:31:49.966Z,9.42
2022-11-15T06:34:10.660Z,9.58
2022-11-15T06:36:31.035Z,9.67
2022-11-15T06:38:54.157Z,9.81
2022-11-15T06:45:02.411Z,10.00
2022-11-15T06:47:23.065Z,10.09
2022-11-15T06:49:44.015Z,10.18
2022-11-15T06:52:04.915Z,10.27
2022-11-15T06:54:26.466Z,10.26
2022-11-15T06:56:47.116Z,10.37
2022-11-15T06:59:07.531Z,10.50
2022-11-15T07:01:28.081Z,10.53
2022-11-15T07:03:51.630Z,10.70
2022-11-15T07:06:12.344Z,10.79
2022-11-15T07:08:33.120Z,10.81
2022-11-15T07:10:54.054Z,10.96
2022-11-15T07:13:14.758Z,11.05
2022-11-15T07:15:35.177Z,11.17
2022-11-15T07:17:55.741Z,11.24
2022-11-15T07:20:19.927Z,11.32
2022-11-15T07:22:43.947Z,11.39
2022-11-15T07:25:04.955Z,11.51
2022-11-15T07:27:25.822Z,11.65
2022-11-15T07:29:46.616Z,11.79
2022-11-15T07:32:07.393Z,11.90
2022-11-15T07:34:27.758Z,12.03
2022-11-15T07:36:48.134Z,12.04
2022-11-15T07:39:09.379Z,12.14
2022-11-15T07:41:30.978Z,12.23
2022-11-15T07:43:54.397Z,12.32
2022-11-15T07:46:16.445Z,12.40
2022-11-15T07:48:44.086Z,12.50
2022-11-15T07:51:09.895Z,12.56
2022-11-15T07:53:34.252Z,12.57
2022-11-15T07:55:55.083Z,12.66
2022-11-15T07:58:16.098Z,12.69
2022-11-15T08:00:37.192Z,12.76
2022-11-15T08:03:24.221Z,12.77
2022-11-15T08:05:52.166Z,12.84
2022-11-15T08:08:13.061Z,12.97
2022-11-15T08:10:39.378Z,13.05
2022-11-15T08:13:04.056Z,13.15
2022-11-15T08:15:24.866Z,13.22
2022-11-15T08:17:45.431Z,13.28
2022-11-15T08:20:07.062Z,13.41
2022-11-15T08:22:27.675Z,13.53
2022-11-15T08:24:47.847Z,13.59
2022-11-15T08:27:16.163Z,13.67
2022-11-15T08:29:37.269Z,13.68
2022-11-15T08:31:58.282Z,13.73
2022-11-15T08:34:19.123Z,13.74
2022-11-15T08:36:46.005Z,13.75
2022-11-15T08:39:06.777Z,13.79
2022-11-15T08:41:36.985Z,13.77
2022-11-15T08:43:58.096Z,13.89
2022-11-15T08:46:19.483Z,13.95
2022-11-15T08:48:40.367Z,14.01
2022-11-15T08:51:01.047Z,14.04
2022-11-15T08:53:47.474Z,14.05
2022-11-15T08:56:10.239Z,14.14
2022-11-15T08:58:30.990Z,14.19
2022-11-15T09:00:51.882Z,14.24
2022-11-15T09:03:12.708Z,14.27
2022-11-15T09:05:36.659Z,14.32
2022-11-15T09:07:57.545Z,14.33
2022-11-15T09:10:18.076Z,14.36
2022-11-15T09:12:39.078Z,14.40
2022-11-15T09:14:59.889Z,14.43
2022-11-15T09:17:24.666Z,14.46
2022-11-15T09:20:10.380Z,14.51
2022-11-15T09:22:30.799Z,14.62
2022-11-15T09:24:51.477Z,14.66
2022-11-15T09:27:13.115Z,14.70
2022-11-15T09:29:33.665Z,14.76
2022-11-15T09:31:54.293Z,14.83
2022-11-15T09:34:14.938Z,14.88
2022-11-15T09:36:35.981Z,14.96
2022-11-15T09:38:59.227Z,15.00
2022-11-15T09:41:42.032Z,15.04
2022-11-15T09:44:44.962Z,15.08
2022-11-15T09:47:08.519Z,15.16
2022-11-15T09:49:31.054Z,15.24
2022-11-15T09:51:55.411Z,15.28
2022-11-15T09:54:51.741Z,15.32
2022-11-15T09:56:33.432Z,15.45
2022-11-15T09:59:03.971Z,15.46
2022-11-15T10:01:13.857Z,15.50
2022-11-15T10:03:43.081Z,15.53
2022-11-15T10:05:49.031Z,15.61
2022-11-15T10:08:08.054Z,15.60
2022-11-15T10:10:42.956Z,15.65
2022-11-15T10:12:49.266Z,15.68
2022-11-15T10:15:01.266Z,15.72
2022-11-15T10:17:40.639Z,15.73
2022-11-15T10:20:12.900Z,15.82
2022-11-15T10:22:20.726Z,15.91
2022-11-15T10:24:29.180Z,15.95
2022-11-15T10:26:31.363Z,16.01
2022-11-15T10:28:33.790Z,16.09
2022-11-15T10:30:42.486Z,16.07
2022-11-15T10:32:46.284Z,16.16
2022-11-15T10:34:50.192Z,16.13
2022-11-15T10:37:00.086Z,16.20
2022-11-15T10:39:02.141Z,16.24
2022-11-15T10:41:12.229Z,16.27
2022-11-15T10:43:16.206Z,16.31
2022-11-15T10:45:28.485Z,16.37
2022-11-15T10:47:39.009Z,16.40
2022-11-15T10:49:56.171Z,16.40
2022-11-15T10:52:16.183Z,16.48
2022-11-15T10:54:27.190Z,16.53
2022-11-15T10:56:29.627Z,16.51
2022-11-15T10:58:41.371Z,16.54
2022-11-15T11:00:43.820Z,16.66
2022-11-15T11:03:08.466Z,16.66
2022-11-15T11:05:42.151Z,16.61
2022-11-15T11:11:09.355Z,16.67
2022-11-15T11:13:30.168Z,16.67
2022-11-15T11:15:32.443Z,16.76
2022-11-15T11:17:46.379Z,16.76
2022-11-15T11:20:01.161Z,16.80
2022-11-15T11:22:42.960Z,16.84
2022-11-15T11:25:05.073Z,16.89
2022-11-15T11:27:34.207Z,16.91
2022-11-15T11:30:03.274Z,16.95
2022-11-15T11:32:38.848Z,17.00
2022-11-15T11:35:42.985Z,16.98
2022-11-15T11:37:52.546Z,17.01
2022-11-15T11:40:17.535Z,17.00
2022-11-15T11:43:02.685Z,16.93
2022-11-15T11:45:47.320Z,16.98
2022-11-15T11:48:09.145Z,16.98
2022-11-15T11:50:24.442Z,17.05
2022-11-15T11:52:28.538Z,17.08
2022-11-15T11:54:51.956Z,17.05
2022-11-15T11:56:55.534Z,17.02
2022-11-15T11:59:07.841Z,16.99
2022-11-15T12:01:21.807Z,17.01
2022-11-15T12:03:36.092Z,17.05
2022-11-15T12:05:56.657Z,17.03
2022-11-15T12:08:11.148Z,17.03
2022-11-15T12:10:23.648Z,17.04
2022-11-15T12:12:48.695Z,16.96
2022-11-15T12:14:57.581Z,16.97
2022-11-15T12:17:00.635Z,17.01
2022-11-15T12:19:06.289Z,17.01
2022-11-15T12:21:36.371Z,17.02
2022-11-15T12:23:53.030Z,17.06
2022-11-15T12:26:03.352Z,17.12
2022-11-15T12:28:36.457Z,17.10
2022-11-15T12:30:53.585Z,17.05
2022-11-15T12:33:02.959Z,17.05
2022-11-15T12:35:21.265Z,17.06
2022-11-15T12:37:45.130Z,17.02
2022-11-15T12:40:25.782Z,17.00
2022-11-15T12:43:08.211Z,16.98
2022-11-15T12:45:36.491Z,16.94
2022-11-15T12:47:38.626Z,17.00
2022-11-15T12:49:40.623Z,16.97
2022-11-15T12:51:53.094Z,16.88
2022-11-15T12:53:55.071Z,16.89
2022-11-15T12:56:16.236Z,16.80
2022-11-15T12:58:29.833Z,16.80
2022-11-15T13:00:34.966Z,16.81
2022-11-15T13:02:47.671Z,16.74
2022-11-15T13:04:51.538Z,16.77
2022-11-15T13:06:56.937Z,16.72
2022-11-15T13:08:59.382Z,16.74
2022-11-15T13:11:39.934Z,16.64
2022-11-15T13:13:46.396Z,16.69
2022-11-15T13:16:19.457Z,16.63
2022-11-15T13:18:37.339Z,16.64
2022-11-15T13:28:42.589Z,16.52
2022-11-15T13:30:47.584Z,16.56
2022-11-15T13:32:51.559Z,16.59
2022-11-15T13:34:53.971Z,16.55
2022-11-15T13:36:56.990Z,16.52
2022-11-15T13:39:26.218Z,16.46
2022-11-15T13:41:37.038Z,16.44
2022-11-15T13:43:39.248Z,16.49
2022-11-15T13:45:41.269Z,16.49
2022-11-15T13:47:44.724Z,16.45
2022-11-15T13:49:47.010Z,16.51
2022-11-15T13:51:52.450Z,16.48
2022-11-15T13:54:30.136Z,16.43
2022-11-15T13:56:35.223Z,16.50
2022-11-15T13:58:40.762Z,16.46
2022-11-15T14:00:46.230Z,16.43
2022-11-15T14:02:48.381Z,16.42
2022-11-15T14:05:00.705Z,16.37
2022-11-15T14:07:03.984Z,16.35
2022-11-15T14:09:12.207Z,16.30
2022-11-15T14:11:18.642Z,16.29
2022-11-15T14:13:34.851Z,16.22
2022-11-15T14:15:39.515Z,16.26
2022-11-15T14:17:49.735Z,16.22
2022-11-15T14:19:53.705Z,16.19
2022-11-15T14:22:26.791Z,16.05
2022-11-15T14:24:32.701Z,16.04
2022-11-15T14:26:35.969Z,16.00
2022-11-15T14:28:40.333Z,15.98
2022-11-15T14:30:43.846Z,15.97
2022-11-15T14:32:50.669Z,15.91
2022-11-15T14:35:01.293Z,15.87
2022-11-15T14:37:03.318Z,15.87
2022-11-15T14:39:06.424Z,15.83
2022-11-15T14:41:20.239Z,15.78
2022-11-15T14:43:22.438Z,15.79
2022-11-15T14:45:24.545Z,15.79
2022-11-15T14:47:26.641Z,15.74
2022-11-15T14:49:28.688Z,15.68
2022-11-15T14:51:31.217Z,15.70
2022-11-15T14:53:33.472Z,15.66
2022-11-15T14:55:37.352Z,15.65
2022-11-15T14:57:39.650Z,15.64
2022-11-15T14:59:41.806Z,15.60
2022-11-15T15:01:46.263Z,15.57
2022-11-15T15:03:48.429Z,15.50
2022-11-15T15:05:50.928Z,15.49
2022-11-15T15:07:54.317Z,15.46
2022-11-15T15:10:06.744Z,15.46
2022-11-15T15:12:20.889Z,15.46
2022-11-15T15:14:23.222Z,15.46
2022-11-15T15:16:25.945Z,15.42
2022-11-15T15:18:28.200Z,15.38
2022-11-15T15:20:31.193Z,15.38
2022-11-15T15:22:34.155Z,15.36
2022-11-15T15:24:36.072Z,15.36
2022-11-15T15:26:40.288Z,15.35
2022-11-15T15:28:42.573Z,15.34
2022-11-15T15:30:44.916Z,15.34
2022-11-15T15:32:47.064Z,15.29
2022-11-15T15:34:49.397Z,15.30
2022-11-15T15:37:50.971Z,15.18
2022-11-15T15:39:57.329Z,15.20
2022-11-15T15:41:59.567Z,15.23
2022-11-15T15:44:02.126Z,15.23
2022-11-15T15:46:04.613Z,15.22
2022-11-15T15:48:07.055Z,15.19
2022-11-15T15:50:21.183Z,15.16
2022-11-15T15:52:23.342Z,15.19
2022-11-15T15:54:25.364Z,15.17
2022-11-15T15:56:29.305Z,15.14
2022-11-15T15:58:35.657Z,15.13
2022-11-15T16:00:38.628Z,15.12
2022-11-15T16:02:41.262Z,15.10
2022-11-15T16:04:43.752Z,15.08
2022-11-15T16:06:46.037Z,15.08
2022-11-15T16:09:13.666Z,15.08
2022-11-15T16:11:11.367Z,15.08
2022-11-15T16:13:13.559Z,15.07
2022-11-15T16:15:16.211Z,15.07
2022-11-15T16:17:21.517Z,15.00
2022-11-15T16:19:23.785Z,15.05
2022-11-15T16:21:26.035Z,15.05
2022-11-15T16:23:27.923Z,15.09
2022-11-15T16:25:31.609Z,15.08
2022-11-15T16:27:33.804Z,15.08
2022-11-15T16:29:36.093Z,15.05
2022-11-15T16:31:38.659Z,15.00
2022-11-15T16:33:41.675Z,14.98
2022-11-15T16:35:43.801Z,14.95
2022-11-15T16:37:47.370Z,15.04
2022-11-15T16:39:50.737Z,14.98
2022-11-15T16:41:52.889Z,15.01
2022-11-15T16:43:54.881Z,15.00
2022-11-15T16:45:57.048Z,15.03
2022-11-15T16:51:23.951Z,14.94
2022-11-15T16:53:27.962Z,14.91
2022-11-15T16:55:30.684Z,14.88
2022-11-15T16:58:02.015Z,14.79
2022-11-15T17:00:04.775Z,14.84
2022-11-15T17:02:12.714Z,14.79
2022-11-15T17:04:16.491Z,14.83
2022-11-15T17:06:19.151Z,14.83
2022-11-15T17:08:22.641Z,14.81
2022-11-15T17:10:26.521Z,14.80
2022-11-15T17:12:28.935Z,14.79
2022-11-15T17:14:31.436Z,14.76
2022-11-15T17:16:38.369Z,14.73
2022-11-15T17:18:41.776Z,14.73
2022-11-15T17:20:44.661Z,14.77
2022-11-15T17:22:47.596Z,14.74
2022-11-15T17:24:49.975Z,14.71
2022-11-15T17:26:52.215Z,14.74
2022-11-15T17:28:57.841Z,14.66
2022-11-15T17:31:00.289Z,14.67
2022-11-15T17:33:02.215Z,14.68
2022-11-15T17:35:12.171Z,14.67
2022-11-15T17:37:17.459Z,14.63
2022-11-15T17:39:21.008Z,14.60
2022-11-15T17:41:23.427Z,14.57
2022-11-15T17:43:25.611Z,14.57
2022-11-15T17:45:27.751Z,14.55
2022-11-15T17:47:29.724Z,14.53
2022-11-15T17:49:31.920Z,14.51
2022-11-15T17:51:34.046Z,14.50
2022-11-15T17:53:38.685Z,14.49
2022-11-15T17:55:43.026Z,14.46
2022-11-15T17:57:45.125Z,14.47
2022-11-15T17:59:48.800Z,14.43
2022-11-15T18:01:50.919Z,14.44
2022-11-15T18:03:53.889Z,14.43
2022-11-15T18:05:56.046Z,14.45
2022-11-15T18:07:58.268Z,14.41
2022-11-15T18:10:00.492Z,14.39
2022-11-15T18:12:02.578Z,14.40
2022-11-15T18:14:06.690Z,14.32
2022-11-15T18:16:15.696Z,14.28
2022-11-15T18:18:20.298Z,14.33
2022-11-15T18:20:26.551Z,14.34
2022-11-15T18:22:30.840Z,14.26
2022-11-15T18:24:41.637Z,14.28
2022-11-15T18:26:43.809Z,14.25
2022-11-15T18:28:49.006Z,14.22
2022-11-15T18:30:52.758Z,14.24
2022-11-15T18:32:55.520Z,14.23
2022-11-15T18:34:57.625Z,14.23
2022-11-15T18:37:01.650Z,14.22
2022-11-15T18:39:05.044Z,14.20
2022-11-15T18:41:09.776Z,14.20
2022-11-15T18:43:36.978Z,14.12
2022-11-15T18:45:39.090Z,14.17
2022-11-15T18:47:44.201Z,14.18
2022-11-15T18:49:48.531Z,14.20
2022-11-15T18:51:50.873Z,14.19
2022-11-15T18:53:54.801Z,14.18
2022-11-15T18:56:05.178Z,14.12
2022-11-15T18:58:07.097Z,14.16
2022-11-15T19:00:09.917Z,14.16
2022-11-15T19:02:13.110Z,14.16
2022-11-15T19:04:19.089Z,14.15
2022-11-15T19:06:23.933Z,14.15
2022-11-15T19:08:26.301Z,14.15
2022-11-15T19:10:28.297Z,14.14
2022-11-15T19:12:30.276Z,14.14
2022-11-15T19:14:32.915Z,14.09
2022-11-15T19:16:38.094Z,14.11
2022-11-15T19:18:40.220Z,14.11
2022-11-15T19:20:42.596Z,14.08
2022-11-15T19:22:44.671Z,14.08
2022-11-15T19:24:46.655Z,14.09
2022-11-15T19:26:48.987Z,14.10
2022-11-15T19:28:58.404Z,14.06
2022-11-15T19:31:11.521Z,14.04
2022-11-15T19:33:13.709Z,14.10
2022-11-15T19:35:15.931Z,14.11
2022-11-15T19:37:17.879Z,14.11
2022-11-15T19:39:20.054Z,14.11
2022-11-15T19:41:24.150Z,14.08
2022-11-15T19:43:26.703Z,14.10
2022-11-15T19:45:28.551Z,14.09
2022-11-15T19:47:33.621Z,14.08
2022-11-15T19:49:38.418Z,14.05
2022-11-15T19:51:42.653Z,14.03
2022-11-15T19:53:45.446Z,14.02
2022-11-15T19:56:00.307Z,13.97
2022-11-15T19:58:02.762Z,14.01
2022-11-15T20:00:07.600Z,14.02
2022-11-15T20:02:12.518Z,13.99
2022-11-15T20:04:14.662Z,14.02
2022-11-15T20:06:22.005Z,14.00
2022-11-15T20:08:24.225Z,14.01
2022-11-15T20:10:26.228Z,13.98
2022-11-15T20:12:28.190Z,14.00
2022-11-15T20:14:30.522Z,14.00
2022-11-15T20:16:33.719Z,14.00
2022-11-15T20:18:36.118Z,14.03
2022-11-15T20:20:38.698Z,14.01
2022-11-15T20:22:40.904Z,13.99
2022-11-15T20:24:42.987Z,13.98
2022-11-15T20:26:45.194Z,13.98
2022-11-15T20:28:48.241Z,13.93
2022-11-15T20:30:53.709Z,13.94
2022-11-15T20:32:55.722Z,13.89
2022-11-15T20:34:57.599Z,13.88
2022-11-15T20:36:59.798Z,13.89
2022-11-15T20:39:01.920Z,13.83
2022-11-15T20:41:04.101Z,13.83
2022-11-15T20:43:07.236Z,13.83
2022-11-15T20:45:09.519Z,13.79
2022-11-15T20:47:11.639Z,13.84
2022-11-15T20:49:13.407Z,13.86
2022-11-15T20:51:17.112Z,13.81
2022-11-15T20:53:20.464Z,13.85
2022-11-15T20:55:22.896Z,13.90
2022-11-15T20:57:25.018Z,13.84
2022-11-15T20:59:27.296Z,13.87
2022-11-15T21:01:29.711Z,13.88
2022-11-15T21:03:33.290Z,13.90
2022-11-15T21:05:38.958Z,13.84
2022-11-15T21:07:46.611Z,13.87
2022-11-15T21:10:07.601Z,13.87
2022-11-15T21:12:14.064Z,13.84
2022-11-15T21:14:16.157Z,13.86
2022-11-15T21:16:18.031Z,13.85
2022-11-15T21:18:19.958Z,13.85
2022-11-15T21:20:21.817Z,13.85
2022-11-15T21:22:24.056Z,13.82
2022-11-15T21:24:26.336Z,13.84
2022-11-15T21:26:28.754Z,13.81
2022-11-15T21:28:31.305Z,13.82
2022-11-15T21:30:33.976Z,13.82
2022-11-15T21:32:39.345Z,13.81
2022-11-15T21:34:41.735Z,13.79
2022-11-15T21:36:46.110Z,13.80
2022-11-15T21:38:50.480Z,13.83
2022-11-15T21:40:53.633Z,13.76
2022-11-15T21:42:55.636Z,13.82
2022-11-15T21:44:57.766Z,13.80
2022-11-15T21:47:00.502Z,13.80
2022-11-15T21:49:02.877Z,13.81
2022-11-15T21:51:07.510Z,13.81
2022-11-15T21:53:09.533Z,13.81
2022-11-15T21:55:11.656Z,13.81
2022-11-15T21:57:13.783Z,13.81
2022-11-15T21:59:15.633Z,13.81
2022-11-15T22:01:36.155Z,13.82
2022-11-15T22:03:38.127Z,13.82
2022-11-15T22:05:43.995Z,13.80
2022-11-15T22:07:45.971Z,13.79
2022-11-15T22:09:48.022Z,13.79
2022-11-15T22:11:50.146Z,13.80
2022-11-15T22:13:52.204Z,13.73
2022-11-15T22:15:55.144Z,13.77
2022-11-15T22:18:00.121Z,13.73
2022-11-15T22:20:16.886Z,13.71
2022-11-15T22:22:24.717Z,13.64
2022-11-15T22:24:27.514Z,13.61
2022-11-15T22:26:29.620Z,13.68
2022-11-15T22:28:32.541Z,13.70
2022-11-15T22:30:39.592Z,13.72
2022-11-15T22:36:08.027Z,13.66
2022-11-15T22:38:11.191Z,13.64
2022-11-15T22:40:13.586Z,13.63
2022-11-15T22:42:20.721Z,13.56
2022-11-15T22:44:25.428Z,13.62
2022-11-15T22:46:27.971Z,13.63
2022-11-15T22:48:36.442Z,13.65
2022-11-15T22:50:39.225Z,13.63
2022-11-15T22:52:41.490Z,13.64
2022-11-15T22:54:46.586Z,13.67
2022-11-15T22:56:51.053Z,13.63
2022-11-15T22:58:53.152Z,13.67
2022-11-15T23:00:58.297Z,13.61
2022-11-15T23:03:00.957Z,13.62
2022-11-15T23:05:03.580Z,13.58
2022-11-15T23:07:05.824Z,13.56
2022-11-15T23:09:08.385Z,13.55
2022-11-15T23:11:30.272Z,13.48
2022-11-15T23:13:33.570Z,13.58
2022-11-15T23:15:54.441Z,13.62
2022-11-15T23:17:56.789Z,13.61
2022-11-15T23:20:11.157Z,13.62
2022-11-15T23:22:39.725Z,13.54
2022-11-15T23:24:41.913Z,13.56
2022-11-15T23:26:46.073Z,13.59
2022-11-15T23:28:48.264Z,13.59
2022-11-15T23:31:09.122Z,13.60
2022-11-15T23:34:01.982Z,13.57
2022-11-15T23:36:05.402Z,13.55
2022-11-15T23:38:07.921Z,13.62
2022-11-15T23:40:10.911Z,13.64
2022-11-15T23:42:20.278Z,13.68
2022-11-15T23:44:23.193Z,13.69
2022-11-15T23:46:25.212Z,13.72
2022-11-15T23:48:28.089Z,13.72
2022-11-15T23:50:32.926Z,13.59
2022-11-15T23:52:35.216Z,13.60
2022-11-15T23:54:38.406Z,13.62
2022-11-15T23:56:40.685Z,13.58
2022-11-15T23:58:44.400Z,13.63
